Time;durP1;ratioP1;P1;durP2;ratioP2;P2;SDS_P1;SDS_P2;PMS_P1;PMS_P2;Temp;Humidity;BMP_temperature;BMP_pressure;BME280_temperature;BME280_humidity;BME280_pressure;Samples;Min_cycle;Max_cycle;Signal;HPM_P1;HPM_P2
2021/11/01 09:38:29;;;;;;;3.43;2.70;;;13.10;99.90;;;;;;6303701;22;20523;-80
2021/11/01 09:41:22;;;;;;;3.77;2.73;;;13.00;99.90;;;;;;6329589;22;20463;-81
2021/11/01 09:43:58;;;;;;;2.80;2.47;;;13.00;99.90;;;;;;6276703;22;20427;-80
2021/11/01 09:47:03;;;;;;;3.23;2.30;;;13.00;99.90;;;;;;6277366;22;20851;-80
2021/11/01 09:50:54;;;;;;;3.60;2.13;;;13.00;99.90;;;;;;6304270;22;20424;-81
2021/11/01 09:54:25;;;;;;;2.43;1.77;;;12.90;99.90;;;;;;6269656;22;20408;-81
2021/11/01 09:57:21;;;;;;;3.27;2.10;;;12.80;99.90;;;;;;6273710;22;20957;-79
2021/11/01 10:00:06;;;;;;;4.67;2.30;;;12.80;99.90;;;;;;6300870;22;20383;-80
2021/11/01 10:02:52;;;;;;;3.03;2.50;;;12.80;99.90;;;;;;6276318;22;20438;-80
2021/11/01 10:05:29;;;;;;;4.57;2.33;;;12.80;99.90;;;;;;6296342;22;20396;-79
2021/11/01 10:08:01;;;;;;;3.77;2.40;;;12.80;99.90;;;;;;6295647;22;20953;-80
2021/11/01 10:10:44;;;;;;;2.97;2.77;;;12.80;99.90;;;;;;6296165;22;20455;-81
2021/11/01 10:13:16;;;;;;;3.30;2.50;;;12.70;99.90;;;;;;6295936;22;20442;-79
2021/11/01 10:19:52;;;;;;;4.50;2.33;;;12.80;99.90;;;;;;6304951;22;20467;-81
2021/11/01 10:23:16;;;;;;;2.83;2.30;;;12.70;99.90;;;;;;6282640;22;20817;-79
2021/11/01 10:37:37;;;;;;;2.70;2.00;;;12.80;99.90;;;;;;6286462;22;20402;-81
2021/11/01 10:43:59;;;;;;;2.67;1.43;;;12.80;99.90;;;;;;6236926;23;20450;-82
2021/11/01 11:44:02;;;;;;;3.53;1.83;;;12.50;99.90;;;;;;4907656;29;20485;-81
2021/11/01 11:47:35;;;;;;;3.27;1.80;;;12.60;99.90;;;;;;4914552;29;20473;-81
2021/11/01 11:56:21;;;;;;;1.23;1.10;;;12.50;99.90;;;;;;4872485;28;20956;-81
2021/11/01 12:06:19;;;;;;;2.87;1.20;;;12.40;99.90;;;;;;5138870;23;20486;-82
2021/11/01 12:09:35;;;;;;;3.13;1.60;;;12.50;99.90;;;;;;4946641;28;20435;-79
2021/11/01 12:17:50;;;;;;;4.30;1.70;;;12.40;99.90;;;;;;4947320;28;20460;-80
2021/11/01 12:20:22;;;;;;;5.10;1.70;;;12.40;99.90;;;;;;4951567;28;20481;-80
2021/11/01 12:22:57;;;;;;;1.93;1.50;;;12.40;99.90;;;;;;4952563;28;20491;-80
2021/11/01 12:25:40;;;;;;;1.80;1.53;;;12.50;99.90;;;;;;4954828;28;20443;-80
2021/11/01 12:28:26;;;;;;;3.27;1.73;;;12.50;99.90;;;;;;4959667;28;20447;-81
2021/11/01 12:31:14;;;;;;;2.43;1.40;;;12.50;99.90;;;;;;4955948;28;20454;-81
2021/11/01 12:57:09;;;;;;;1.70;1.50;;;12.40;99.90;;;;;;4963150;28;20532;-79
2021/11/01 12:59:42;;;;;;;3.90;2.20;;;12.40;99.90;;;;;;4980138;28;20450;-79
2021/11/01 13:02:16;;;;;;;3.10;1.80;;;12.40;99.90;;;;;;4966814;28;20507;-79
2021/11/01 13:05:01;;;;;;;3.27;2.03;;;12.40;99.90;;;;;;4977415;28;20448;-79
2021/11/01 13:07:44;;;;;;;2.63;2.10;;;12.40;99.90;;;;;;4984543;28;20524;-78
2021/11/01 13:10:20;;;;;;;1.90;1.80;;;12.40;99.90;;;;;;4992955;28;20465;-77
2021/11/01 13:19:56;;;;;;;3.13;2.03;;;12.50;99.90;;;;;;4971921;28;20452;-79
2021/11/01 13:37:19;;;;;;;3.93;2.10;;;12.50;99.90;;;;;;4888329;29;20771;-79
2021/11/01 13:40:01;;;;;;;3.47;2.10;;;12.40;99.90;;;;;;4899779;29;20879;-79
2021/11/01 13:42:33;;;;;;;2.87;1.80;;;12.50;99.90;;;;;;4908504;29;20529;-80
2021/11/01 13:45:11;;;;;;;4.30;1.97;;;12.50;99.90;;;;;;4929451;29;20462;-80
2021/11/01 13:47:51;;;;;;;5.80;1.83;;;12.50;99.90;;;;;;4896869;29;20513;-80
2021/11/01 13:50:41;;;;;;;2.63;1.50;;;12.40;99.90;;;;;;4909502;29;20544;-80
2021/11/01 13:54:02;;;;;;;3.00;2.07;;;12.40;99.90;;;;;;4923472;29;20449;-79
2021/11/01 14:00:23;;;;;;;2.83;2.27;;;12.60;99.90;;;;;;4911344;29;20458;-80
2021/11/01 14:29:18;;;;;;;3.10;2.20;;;12.40;99.90;;;;;;5086342;23;20551;-80
2021/11/01 14:35:24;;;;;;;2.53;1.90;;;12.40;99.90;;;;;;4946766;28;20462;-79
